sensor_id;sensor_type;location;lat;lon;timestamp;pressure;altitude;pressure_sealevel;temperature;humidity
49611;BME280;35515;48.766;9.176;2024-03-08T00:01:14;98249.56;;;5.22;88.34
49611;BME280;35515;48.766;9.176;2024-03-08T00:03:42;98246.78;;;5.07;88.83
49611;BME280;35515;48.766;9.176;2024-03-08T00:06:08;98247.28;;;5.02;88.91
49611;BME280;35515;48.766;9.176;2024-03-08T00:08:35;98244.97;;;4.99;89.71
49611;BME280;35515;48.766;9.176;2024-03-08T00:11:01;98250.34;;;4.99;88.77
49611;BME280;35515;48.766;9.176;2024-03-08T00:13:28;98237.56;;;5.01;88.39
49611;BME280;35515;48.766;9.176;2024-03-08T00:15:56;98232.31;;;5.08;88.95
49611;BME280;35515;48.766;9.176;2024-03-08T00:18:23;98238.56;;;5.08;87.93
49611;BME280;35515;48.766;9.176;2024-03-08T00:20:50;98232.25;;;4.93;88.54
49611;BME280;35515;48.766;9.176;2024-03-08T00:23:17;98234.59;;;4.96;89.08
49611;BME280;35515;48.766;9.176;2024-03-08T00:25:43;98240.34;;;4.84;89.81
49611;BME280;35515;48.766;9.176;2024-03-08T00:28:10;98239.66;;;4.82;90.10
49611;BME280;35515;48.766;9.176;2024-03-08T00:30:38;98232.91;;;4.95;90.09
49611;BME280;35515;48.766;9.176;2024-03-08T00:33:06;98230.69;;;5.07;89.17
49611;BME280;35515;48.766;9.176;2024-03-08T00:35:33;98234.44;;;4.89;89.41
49611;BME280;35515;48.766;9.176;2024-03-08T00:37:59;98227.13;;;4.75;90.92
49611;BME280;35515;48.766;9.176;2024-03-08T00:40:26;98232.38;;;4.60;91.85
49611;BME280;35515;48.766;9.176;2024-03-08T00:42:54;98227.31;;;4.65;92.25
49611;BME280;35515;48.766;9.176;2024-03-08T00:45:20;98227.72;;;4.54;91.60
49611;BME280;35515;48.766;9.176;2024-03-08T00:47:47;98218.59;;;4.71;92.07
49611;BME280;35515;48.766;9.176;2024-03-08T00:50:15;98219.59;;;4.70;91.05
49611;BME280;35515;48.766;9.176;2024-03-08T00:52:43;98210.91;;;4.60;92.04
49611;BME280;35515;48.766;9.176;2024-03-08T00:55:09;98214.22;;;4.70;91.63
49611;BME280;35515;48.766;9.176;2024-03-08T00:57:36;98216.31;;;4.51;92.04
49611;BME280;35515;48.766;9.176;2024-03-08T01:00:05;98216.38;;;4.35;92.33
49611;BME280;35515;48.766;9.176;2024-03-08T01:02:33;98212.63;;;4.52;91.85
49611;BME280;35515;48.766;9.176;2024-03-08T01:05:00;98208.00;;;4.30;92.92
49611;BME280;35515;48.766;9.176;2024-03-08T01:07:28;98206.19;;;4.22;94.04
49611;BME280;35515;48.766;9.176;2024-03-08T01:09:56;98198.59;;;4.34;93.32
49611;BME280;35515;48.766;9.176;2024-03-08T01:12:23;98207.31;;;4.28;93.26
49611;BME280;35515;48.766;9.176;2024-03-08T01:14:49;98200.31;;;4.27;93.13
49611;BME280;35515;48.766;9.176;2024-03-08T01:17:16;98197.63;;;4.27;92.69
49611;BME280;35515;48.766;9.176;2024-03-08T01:19:43;98200.97;;;4.29;93.11
49611;BME280;35515;48.766;9.176;2024-03-08T01:22:10;98191.84;;;4.55;91.19
49611;BME280;35515;48.766;9.176;2024-03-08T01:24:38;98191.97;;;4.13;91.93
49611;BME280;35515;48.766;9.176;2024-03-08T01:27:05;98194.66;;;4.05;93.19
49611;BME280;35515;48.766;9.176;2024-03-08T01:29:33;98182.28;;;4.04;93.89
49611;BME280;35515;48.766;9.176;2024-03-08T01:31:59;98185.28;;;4.09;93.87
49611;BME280;35515;48.766;9.176;2024-03-08T01:34:27;98179.56;;;4.12;93.01
49611;BME280;35515;48.766;9.176;2024-03-08T01:36:54;98179.75;;;4.11;93.62
49611;BME280;35515;48.766;9.176;2024-03-08T01:39:21;98175.34;;;4.18;92.52
49611;BME280;35515;48.766;9.176;2024-03-08T01:41:49;98167.31;;;4.18;92.99
49611;BME280;35515;48.766;9.176;2024-03-08T01:44:16;98158.81;;;4.06;93.35
49611;BME280;35515;48.766;9.176;2024-03-08T01:46:43;98163.84;;;3.93;94.47
49611;BME280;35515;48.766;9.176;2024-03-08T01:49:11;98154.50;;;3.89;94.80
49611;BME280;35515;48.766;9.176;2024-03-08T01:51:38;98144.03;;;4.10;94.10
49611;BME280;35515;48.766;9.176;2024-03-08T01:54:06;98141.00;;;4.22;93.14
49611;BME280;35515;48.766;9.176;2024-03-08T01:56:36;98142.53;;;4.16;93.04
49611;BME280;35515;48.766;9.176;2024-03-08T01:59:05;98133.31;;;4.10;93.60
49611;BME280;35515;48.766;9.176;2024-03-08T02:01:33;98138.50;;;4.12;93.22
49611;BME280;35515;48.766;9.176;2024-03-08T02:03:59;98138.53;;;4.04;94.14
49611;BME280;35515;48.766;9.176;2024-03-08T02:06:26;98139.84;;;4.08;93.09
49611;BME280;35515;48.766;9.176;2024-03-08T02:08:53;98134.34;;;4.01;93.23
49611;BME280;35515;48.766;9.176;2024-03-08T02:11:20;98123.94;;;4.06;92.73
49611;BME280;35515;48.766;9.176;2024-03-08T02:13:46;98110.22;;;4.01;93.05
49611;BME280;35515;48.766;9.176;2024-03-08T02:16:20;98123.63;;;4.01;92.94
49611;BME280;35515;48.766;9.176;2024-03-08T02:18:47;98109.56;;;3.99;93.23
49611;BME280;35515;48.766;9.176;2024-03-08T02:21:16;98102.53;;;3.98;93.08
49611;BME280;35515;48.766;9.176;2024-03-08T02:23:43;98106.22;;;3.97;92.67
49611;BME280;35515;48.766;9.176;2024-03-08T02:26:10;98109.28;;;3.85;93.23
49611;BME280;35515;48.766;9.176;2024-03-08T02:28:36;98100.53;;;3.92;93.66
49611;BME280;35515;48.766;9.176;2024-03-08T02:31:04;98088.88;;;3.76;94.37
49611;BME280;35515;48.766;9.176;2024-03-08T02:33:33;98100.41;;;3.77;93.46
49611;BME280;35515;48.766;9.176;2024-03-08T02:36:00;98095.03;;;3.85;92.01
49611;BME280;35515;48.766;9.176;2024-03-08T02:38:28;98089.16;;;3.90;92.47
49611;BME280;35515;48.766;9.176;2024-03-08T02:40:54;98088.53;;;3.79;92.41
49611;BME280;35515;48.766;9.176;2024-03-08T02:43:21;98095.75;;;3.71;92.30
49611;BME280;35515;48.766;9.176;2024-03-08T02:45:47;98093.28;;;4.09;90.39
49611;BME280;35515;48.766;9.176;2024-03-08T02:48:15;98079.97;;;3.84;91.22
49611;BME280;35515;48.766;9.176;2024-03-08T02:50:42;98083.78;;;3.98;89.61
49611;BME280;35515;48.766;9.176;2024-03-08T02:53:10;98081.06;;;4.06;88.34
49611;BME280;35515;48.766;9.176;2024-03-08T02:55:38;98089.81;;;4.00;88.94
49611;BME280;35515;48.766;9.176;2024-03-08T02:58:06;98081.22;;;4.05;86.94
49611;BME280;35515;48.766;9.176;2024-03-08T03:00:35;98076.59;;;3.90;87.81
49611;BME280;35515;48.766;9.176;2024-03-08T03:03:02;98078.59;;;3.96;87.98
49611;BME280;35515;48.766;9.176;2024-03-08T03:05:29;98074.47;;;3.77;89.41
49611;BME280;35515;48.766;9.176;2024-03-08T03:07:56;98080.47;;;3.79;89.59
49611;BME280;35515;48.766;9.176;2024-03-08T03:10:23;98073.72;;;3.92;88.07
49611;BME280;35515;48.766;9.176;2024-03-08T03:12:51;98071.09;;;3.83;87.67
49611;BME280;35515;48.766;9.176;2024-03-08T03:15:18;98066.72;;;3.82;87.06
49611;BME280;35515;48.766;9.176;2024-03-08T03:17:46;98065.41;;;3.78;87.49
49611;BME280;35515;48.766;9.176;2024-03-08T03:20:13;98060.63;;;4.05;85.79
49611;BME280;35515;48.766;9.176;2024-03-08T03:22:40;98073.06;;;3.98;85.50
49611;BME280;35515;48.766;9.176;2024-03-08T03:25:07;98068.88;;;3.95;86.54
49611;BME280;35515;48.766;9.176;2024-03-08T03:27:34;98057.78;;;4.07;85.54
49611;BME280;35515;48.766;9.176;2024-03-08T03:30:04;98055.97;;;3.99;85.21
49611;BME280;35515;48.766;9.176;2024-03-08T03:32:46;98059.38;;;3.84;86.72
49611;BME280;35515;48.766;9.176;2024-03-08T03:35:13;98045.94;;;3.93;86.22
49611;BME280;35515;48.766;9.176;2024-03-08T03:37:40;98047.66;;;3.85;85.45
49611;BME280;35515;48.766;9.176;2024-03-08T03:40:08;98037.53;;;4.04;85.56
49611;BME280;35515;48.766;9.176;2024-03-08T03:42:35;98054.19;;;3.83;86.38
49611;BME280;35515;48.766;9.176;2024-03-08T03:45:05;98045.63;;;3.88;86.13
49611;BME280;35515;48.766;9.176;2024-03-08T03:47:32;98036.66;;;4.04;84.83
49611;BME280;35515;48.766;9.176;2024-03-08T03:49:58;98028.44;;;4.05;84.60
49611;BME280;35515;48.766;9.176;2024-03-08T03:52:27;98035.94;;;3.87;85.21
49611;BME280;35515;48.766;9.176;2024-03-08T03:54:53;98034.94;;;3.79;86.49
49611;BME280;35515;48.766;9.176;2024-03-08T03:57:20;98034.25;;;3.85;85.60
49611;BME280;35515;48.766;9.176;2024-03-08T03:59:48;98042.94;;;3.88;85.83
49611;BME280;35515;48.766;9.176;2024-03-08T04:02:17;98036.31;;;3.67;86.85
49611;BME280;35515;48.766;9.176;2024-03-08T04:04:45;98046.03;;;3.60;87.03
49611;BME280;35515;48.766;9.176;2024-03-08T04:07:12;98039.88;;;3.51;87.80
49611;BME280;35515;48.766;9.176;2024-03-08T04:09:38;98040.09;;;3.81;86.88
49611;BME280;35515;48.766;9.176;2024-03-08T04:12:05;98042.72;;;3.58;86.86
49611;BME280;35515;48.766;9.176;2024-03-08T04:14:32;98029.13;;;3.59;86.62
49611;BME280;35515;48.766;9.176;2024-03-08T04:16:59;98029.13;;;3.59;86.89
49611;BME280;35515;48.766;9.176;2024-03-08T04:19:27;98026.00;;;3.47;88.15
49611;BME280;35515;48.766;9.176;2024-03-08T04:21:54;98026.94;;;3.71;86.96
49611;BME280;35515;48.766;9.176;2024-03-08T04:24:21;98015.81;;;3.82;85.71
49611;BME280;35515;48.766;9.176;2024-03-08T04:26:47;98025.63;;;3.50;87.93
49611;BME280;35515;48.766;9.176;2024-03-08T04:29:14;98024.69;;;3.35;88.13
49611;BME280;35515;48.766;9.176;2024-03-08T04:31:42;98015.78;;;3.34;89.32
49611;BME280;35515;48.766;9.176;2024-03-08T04:34:08;98009.94;;;3.39;89.68
49611;BME280;35515;48.766;9.176;2024-03-08T04:36:36;98014.25;;;3.57;88.03
49611;BME280;35515;48.766;9.176;2024-03-08T04:39:03;98014.91;;;3.50;87.92
49611;BME280;35515;48.766;9.176;2024-03-08T04:41:30;98021.31;;;3.49;88.19
49611;BME280;35515;48.766;9.176;2024-03-08T04:43:56;98016.56;;;3.60;87.74
49611;BME280;35515;48.766;9.176;2024-03-08T04:46:24;98017.00;;;3.32;89.12
49611;BME280;35515;48.766;9.176;2024-03-08T04:48:50;98006.59;;;3.37;89.02
49611;BME280;35515;48.766;9.176;2024-03-08T04:51:17;98010.56;;;3.58;87.24
49611;BME280;35515;48.766;9.176;2024-03-08T04:53:46;98003.50;;;3.65;86.67
49611;BME280;35515;48.766;9.176;2024-03-08T04:56:12;98010.56;;;3.58;87.16
49611;BME280;35515;48.766;9.176;2024-03-08T04:58:39;98014.59;;;3.54;87.28
49611;BME280;35515;48.766;9.176;2024-03-08T05:01:05;98008.28;;;3.30;89.08
49611;BME280;35515;48.766;9.176;2024-03-08T05:03:35;98012.09;;;3.44;88.94
49611;BME280;35515;48.766;9.176;2024-03-08T05:06:02;98004.22;;;3.50;88.14
49611;BME280;35515;48.766;9.176;2024-03-08T05:08:29;97998.84;;;3.50;86.83
49611;BME280;35515;48.766;9.176;2024-03-08T05:10:57;97993.06;;;3.39;88.05
49611;BME280;35515;48.766;9.176;2024-03-08T05:13:23;97994.94;;;3.22;89.52
49611;BME280;35515;48.766;9.176;2024-03-08T05:15:50;97995.59;;;3.32;88.54
49611;BME280;35515;48.766;9.176;2024-03-08T05:18:16;97996.34;;;3.49;87.62
49611;BME280;35515;48.766;9.176;2024-03-08T05:20:43;97996.25;;;3.26;89.29
49611;BME280;35515;48.766;9.176;2024-03-08T05:23:09;97992.13;;;3.07;89.95
49611;BME280;35515;48.766;9.176;2024-03-08T05:25:36;97997.94;;;3.10;90.89
49611;BME280;35515;48.766;9.176;2024-03-08T05:28:04;97998.28;;;3.07;90.46
49611;BME280;35515;48.766;9.176;2024-03-08T05:30:31;97996.78;;;3.13;90.34
49611;BME280;35515;48.766;9.176;2024-03-08T05:32:58;97991.91;;;3.16;90.49
49611;BME280;35515;48.766;9.176;2024-03-08T05:35:24;97988.22;;;3.26;88.88
49611;BME280;35515;48.766;9.176;2024-03-08T05:37:51;97996.28;;;3.09;90.38
49611;BME280;35515;48.766;9.176;2024-03-08T05:40:17;97988.94;;;2.95;91.73
49611;BME280;35515;48.766;9.176;2024-03-08T05:42:44;97986.25;;;3.03;91.16
49611;BME280;35515;48.766;9.176;2024-03-08T05:45:13;97998.78;;;3.19;90.79
49611;BME280;35515;48.766;9.176;2024-03-08T05:47:40;97987.09;;;3.04;90.95
49611;BME280;35515;48.766;9.176;2024-03-08T05:50:07;97982.75;;;2.94;91.45
49611;BME280;35515;48.766;9.176;2024-03-08T05:52:36;97991.25;;;3.06;90.70
49611;BME280;35515;48.766;9.176;2024-03-08T05:55:04;97987.44;;;2.92;92.00
49611;BME280;35515;48.766;9.176;2024-03-08T05:57:32;97992.97;;;2.91;91.90
49611;BME280;35515;48.766;9.176;2024-03-08T05:59:59;97986.28;;;2.95;91.80
49611;BME280;35515;48.766;9.176;2024-03-08T06:02:27;97987.78;;;2.81;92.15
49611;BME280;35515;48.766;9.176;2024-03-08T06:04:53;97989.97;;;2.86;93.15
49611;BME280;35515;48.766;9.176;2024-03-08T06:07:20;97983.94;;;2.83;93.07
49611;BME280;35515;48.766;9.176;2024-03-08T06:09:46;97987.59;;;2.82;92.68
49611;BME280;35515;48.766;9.176;2024-03-08T06:12:13;97983.91;;;2.92;92.23
49611;BME280;35515;48.766;9.176;2024-03-08T06:14:44;97981.25;;;3.00;91.91
49611;BME280;35515;48.766;9.176;2024-03-08T06:17:10;97984.41;;;3.04;92.26
49611;BME280;35515;48.766;9.176;2024-03-08T06:19:38;97990.09;;;3.09;91.92
49611;BME280;35515;48.766;9.176;2024-03-08T06:22:04;97982.91;;;3.01;91.73
49611;BME280;35515;48.766;9.176;2024-03-08T06:24:31;97983.06;;;3.16;90.87
49611;BME280;35515;48.766;9.176;2024-03-08T06:26:59;97981.84;;;3.18;90.84
49611;BME280;35515;48.766;9.176;2024-03-08T06:29:25;97990.59;;;3.12;91.61
49611;BME280;35515;48.766;9.176;2024-03-08T06:31:52;97990.22;;;3.32;90.71
49611;BME280;35515;48.766;9.176;2024-03-08T06:34:18;97992.91;;;3.15;91.15
49611;BME280;35515;48.766;9.176;2024-03-08T06:36:46;97994.28;;;3.11;91.12
49611;BME280;35515;48.766;9.176;2024-03-08T06:39:13;97995.63;;;3.07;91.53
49611;BME280;35515;48.766;9.176;2024-03-08T06:41:39;97992.59;;;3.10;91.89
49611;BME280;35515;48.766;9.176;2024-03-08T06:44:06;97984.94;;;2.99;92.62
49611;BME280;35515;48.766;9.176;2024-03-08T06:46:34;97990.94;;;2.93;93.48
49611;BME280;35515;48.766;9.176;2024-03-08T06:49:00;97981.56;;;2.97;92.83
49611;BME280;35515;48.766;9.176;2024-03-08T06:51:28;97982.44;;;2.97;92.78
49611;BME280;35515;48.766;9.176;2024-03-08T06:53:57;97990.09;;;3.00;93.41
49611;BME280;35515;48.766;9.176;2024-03-08T06:56:25;97982.53;;;3.21;92.54
49611;BME280;35515;48.766;9.176;2024-03-08T06:58:52;97985.91;;;3.23;91.73
49611;BME280;35515;48.766;9.176;2024-03-08T07:01:18;97981.72;;;3.20;91.63
49611;BME280;35515;48.766;9.176;2024-03-08T07:03:46;97988.75;;;3.13;91.32
49611;BME280;35515;48.766;9.176;2024-03-08T07:06:12;97988.91;;;3.20;92.20
49611;BME280;35515;48.766;9.176;2024-03-08T07:08:39;97989.56;;;3.22;91.81
49611;BME280;35515;48.766;9.176;2024-03-08T07:11:07;97976.16;;;3.30;91.61
49611;BME280;35515;48.766;9.176;2024-03-08T07:13:34;97984.00;;;3.31;90.84
49611;BME280;35515;48.766;9.176;2024-03-08T07:16:00;97974.09;;;3.48;90.31
49611;BME280;35515;48.766;9.176;2024-03-08T07:18:27;97973.69;;;3.68;89.46
49611;BME280;35515;48.766;9.176;2024-03-08T07:20:55;97970.31;;;3.74;88.50
49611;BME280;35515;48.766;9.176;2024-03-08T07:23:21;97971.31;;;3.73;88.13
49611;BME280;35515;48.766;9.176;2024-03-08T07:26:02;97966.03;;;3.57;89.71
49611;BME280;35515;48.766;9.176;2024-03-08T07:28:29;97958.66;;;3.59;90.19
49611;BME280;35515;48.766;9.176;2024-03-08T07:30:57;97967.38;;;3.53;89.87
49611;BME280;35515;48.766;9.176;2024-03-08T07:33:37;97976.09;;;3.46;90.54
49611;BME280;35515;48.766;9.176;2024-03-08T07:36:04;97974.06;;;3.57;90.70
49611;BME280;35515;48.766;9.176;2024-03-08T07:38:31;97964.53;;;3.54;90.40
49611;BME280;35515;48.766;9.176;2024-03-08T07:40:57;97965.94;;;3.73;89.43
49611;BME280;35515;48.766;9.176;2024-03-08T07:43:24;97965.78;;;3.75;89.65
49611;BME280;35515;48.766;9.176;2024-03-08T07:45:52;97960.44;;;4.06;92.98
49611;BME280;35515;48.766;9.176;2024-03-08T07:48:20;97957.00;;;4.21;91.95
49611;BME280;35515;48.766;9.176;2024-03-08T07:50:47;97961.28;;;4.30;91.01
49611;BME280;35515;48.766;9.176;2024-03-08T07:53:15;97960.59;;;4.36;87.93
49611;BME280;35515;48.766;9.176;2024-03-08T07:55:41;97953.31;;;4.22;86.98
49611;BME280;35515;48.766;9.176;2024-03-08T07:58:10;97957.94;;;4.28;86.22
49611;BME280;35515;48.766;9.176;2024-03-08T08:00:37;97954.84;;;4.16;87.12
49611;BME280;35515;48.766;9.176;2024-03-08T08:03:05;97951.69;;;4.12;87.80
49611;BME280;35515;48.766;9.176;2024-03-08T08:05:33;97943.28;;;4.15;87.18
49611;BME280;35515;48.766;9.176;2024-03-08T08:08:01;97948.63;;;4.15;87.01
49611;BME280;35515;48.766;9.176;2024-03-08T08:10:28;97942.94;;;4.18;86.97
49611;BME280;35515;48.766;9.176;2024-03-08T08:12:54;97943.41;;;4.45;85.96
49611;BME280;35515;48.766;9.176;2024-03-08T08:15:22;97947.41;;;4.49;85.23
49611;BME280;35515;48.766;9.176;2024-03-08T08:17:48;97958.41;;;4.08;85.25
49611;BME280;35515;48.766;9.176;2024-03-08T08:20:17;97943.50;;;4.06;86.37
49611;BME280;35515;48.766;9.176;2024-03-08T08:22:44;97950.00;;;4.11;85.35
49611;BME280;35515;48.766;9.176;2024-03-08T08:25:13;97937.41;;;4.20;85.93
49611;BME280;35515;48.766;9.176;2024-03-08T08:27:41;97940.72;;;4.22;86.85
49611;BME280;35515;48.766;9.176;2024-03-08T08:30:08;97937.81;;;4.32;85.94
49611;BME280;35515;48.766;9.176;2024-03-08T08:32:36;97935.78;;;4.34;85.60
49611;BME280;35515;48.766;9.176;2024-03-08T08:35:05;97925.88;;;4.11;86.68
49611;BME280;35515;48.766;9.176;2024-03-08T08:37:34;97935.06;;;4.40;85.12
49611;BME280;35515;48.766;9.176;2024-03-08T08:40:02;97927.84;;;4.17;85.80
49611;BME280;35515;48.766;9.176;2024-03-08T08:42:34;97921.59;;;4.02;87.10
49611;BME280;35515;48.766;9.176;2024-03-08T08:45:00;97928.94;;;4.08;86.36
49611;BME280;35515;48.766;9.176;2024-03-08T08:47:29;97915.03;;;4.28;86.55
49611;BME280;35515;48.766;9.176;2024-03-08T08:49:56;97920.50;;;4.58;84.49
49611;BME280;35515;48.766;9.176;2024-03-08T08:52:22;97927.34;;;4.37;84.72
49611;BME280;35515;48.766;9.176;2024-03-08T08:54:50;97916.03;;;4.50;84.17
49611;BME280;35515;48.766;9.176;2024-03-08T08:57:17;97917.56;;;4.29;85.10
49611;BME280;35515;48.766;9.176;2024-03-08T08:59:44;97917.91;;;4.26;84.42
49611;BME280;35515;48.766;9.176;2024-03-08T09:02:11;97922.19;;;4.35;83.77
49611;BME280;35515;48.766;9.176;2024-03-08T09:04:38;97918.38;;;4.07;85.15
49611;BME280;35515;48.766;9.176;2024-03-08T09:07:04;97923.19;;;4.11;86.18
49611;BME280;35515;48.766;9.176;2024-03-08T09:09:31;97918.06;;;4.25;85.38
49611;BME280;35515;48.766;9.176;2024-03-08T09:11:59;97917.38;;;4.31;85.38
49611;BME280;35515;48.766;9.176;2024-03-08T09:14:26;97912.59;;;4.41;84.50
49611;BME280;35515;48.766;9.176;2024-03-08T09:16:52;97912.66;;;4.33;84.84
49611;BME280;35515;48.766;9.176;2024-03-08T09:19:19;97912.31;;;4.36;85.76
49611;BME280;35515;48.766;9.176;2024-03-08T09:21:48;97908.03;;;4.27;85.09
49611;BME280;35515;48.766;9.176;2024-03-08T09:24:14;97904.91;;;4.38;85.35
49611;BME280;35515;48.766;9.176;2024-03-08T09:26:41;97899.66;;;4.45;84.40
49611;BME280;35515;48.766;9.176;2024-03-08T09:29:09;97901.50;;;4.44;84.80
49611;BME280;35515;48.766;9.176;2024-03-08T09:31:37;97895.97;;;4.46;84.91
49611;BME280;35515;48.766;9.176;2024-03-08T09:34:04;97898.63;;;4.46;85.22
49611;BME280;35515;48.766;9.176;2024-03-08T09:36:33;97897.16;;;4.43;85.68
49611;BME280;35515;48.766;9.176;2024-03-08T09:39:00;97884.66;;;4.50;85.54
49611;BME280;35515;48.766;9.176;2024-03-08T09:41:26;97888.59;;;4.63;84.28
49611;BME280;35515;48.766;9.176;2024-03-08T09:43:54;97884.44;;;4.75;83.45
49611;BME280;35515;48.766;9.176;2024-03-08T09:46:23;97887.34;;;4.50;83.94
49611;BME280;35515;48.766;9.176;2024-03-08T09:48:49;97879.84;;;4.84;82.34
49611;BME280;35515;48.766;9.176;2024-03-08T09:51:16;97888.72;;;4.46;84.15
49611;BME280;35515;48.766;9.176;2024-03-08T09:53:42;97884.81;;;4.72;83.45
49611;BME280;35515;48.766;9.176;2024-03-08T09:56:10;97882.78;;;4.74;82.77
49611;BME280;35515;48.766;9.176;2024-03-08T09:58:37;97873.13;;;4.65;84.05
49611;BME280;35515;48.766;9.176;2024-03-08T10:01:23;97870.00;;;4.61;83.92
49611;BME280;35515;48.766;9.176;2024-03-08T10:03:52;97874.81;;;4.66;84.35
49611;BME280;35515;48.766;9.176;2024-03-08T10:06:22;97871.84;;;4.61;84.33
49611;BME280;35515;48.766;9.176;2024-03-08T10:08:49;97866.88;;;4.88;82.89
49611;BME280;35515;48.766;9.176;2024-03-08T10:11:17;97868.25;;;4.83;82.49
49611;BME280;35515;48.766;9.176;2024-03-08T10:13:44;97862.78;;;4.92;82.44
49611;BME280;35515;48.766;9.176;2024-03-08T10:16:11;97859.28;;;4.91;82.45
49611;BME280;35515;48.766;9.176;2024-03-08T10:18:39;97860.31;;;4.75;83.83
49611;BME280;35515;48.766;9.176;2024-03-08T10:21:07;97862.06;;;4.68;83.99
49611;BME280;35515;48.766;9.176;2024-03-08T10:23:35;97858.72;;;4.81;83.88
49611;BME280;35515;48.766;9.176;2024-03-08T10:26:12;97860.22;;;4.83;83.10
49611;BME280;35515;48.766;9.176;2024-03-08T10:28:41;97849.56;;;4.90;83.07
49611;BME280;35515;48.766;9.176;2024-03-08T10:31:08;97845.88;;;4.91;82.57
49611;BME280;35515;48.766;9.176;2024-03-08T10:33:35;97843.47;;;4.96;83.41
49611;BME280;35515;48.766;9.176;2024-03-08T10:36:06;97845.13;;;5.12;82.91
49611;BME280;35515;48.766;9.176;2024-03-08T10:38:35;97845.03;;;5.21;81.87
49611;BME280;35515;48.766;9.176;2024-03-08T10:41:03;97835.50;;;5.03;81.72
49611;BME280;35515;48.766;9.176;2024-03-08T10:43:34;97828.81;;;5.14;81.55
49611;BME280;35515;48.766;9.176;2024-03-08T10:46:13;97832.59;;;5.19;81.55
49611;BME280;35515;48.766;9.176;2024-03-08T10:48:49;97829.94;;;5.34;80.10
49611;BME280;35515;48.766;9.176;2024-03-08T10:51:19;97825.94;;;5.15;80.68
49611;BME280;35515;48.766;9.176;2024-03-08T10:53:46;97830.19;;;5.25;80.69
49611;BME280;35515;48.766;9.176;2024-03-08T10:56:14;97837.75;;;5.51;78.88
49611;BME280;35515;48.766;9.176;2024-03-08T10:58:41;97825.84;;;5.24;80.13
49611;BME280;35515;48.766;9.176;2024-03-08T11:01:09;97818.88;;;5.44;78.48
49611;BME280;35515;48.766;9.176;2024-03-08T11:03:47;97833.31;;;5.43;78.85
49611;BME280;35515;48.766;9.176;2024-03-08T11:06:23;97821.81;;;5.49;78.75
49611;BME280;35515;48.766;9.176;2024-03-08T11:08:55;97820.81;;;5.50;78.74
49611;BME280;35515;48.766;9.176;2024-03-08T11:11:25;97819.47;;;5.61;78.61
49611;BME280;35515;48.766;9.176;2024-03-08T11:13:56;97816.88;;;5.53;78.89
49611;BME280;35515;48.766;9.176;2024-03-08T11:16:39;97816.31;;;5.36;79.93
49611;BME280;35515;48.766;9.176;2024-03-08T11:19:27;97811.00;;;5.43;80.29
49611;BME280;35515;48.766;9.176;2024-03-08T11:22:01;97803.72;;;5.58;78.74
49611;BME280;35515;48.766;9.176;2024-03-08T11:24:28;97801.22;;;5.57;78.80
49611;BME280;35515;48.766;9.176;2024-03-08T11:27:03;97805.59;;;5.58;79.12
49611;BME280;35515;48.766;9.176;2024-03-08T11:29:34;97800.28;;;5.64;78.88
49611;BME280;35515;48.766;9.176;2024-03-08T11:32:05;97803.22;;;5.69;78.20
49611;BME280;35515;48.766;9.176;2024-03-08T11:34:32;97790.63;;;5.70;78.97
49611;BME280;35515;48.766;9.176;2024-03-08T11:37:00;97787.09;;;5.69;77.67
49611;BME280;35515;48.766;9.176;2024-03-08T11:39:29;97799.06;;;5.67;79.57
49611;BME280;35515;48.766;9.176;2024-03-08T11:41:57;97787.56;;;5.73;79.55
49611;BME280;35515;48.766;9.176;2024-03-08T11:44:26;97780.50;;;5.94;77.45
49611;BME280;35515;48.766;9.176;2024-03-08T11:46:53;97781.81;;;5.76;78.37
49611;BME280;35515;48.766;9.176;2024-03-08T11:49:20;97786.16;;;5.77;78.33
49611;BME280;35515;48.766;9.176;2024-03-08T11:51:51;97776.91;;;5.65;78.20
49611;BME280;35515;48.766;9.176;2024-03-08T11:54:20;97768.84;;;5.65;78.74
49611;BME280;35515;48.766;9.176;2024-03-08T11:56:46;97768.34;;;5.76;78.46
49611;BME280;35515;48.766;9.176;2024-03-08T11:59:13;97754.66;;;5.71;78.39
49611;BME280;35515;48.766;9.176;2024-03-08T12:01:40;97753.31;;;5.82;78.32
49611;BME280;35515;48.766;9.176;2024-03-08T12:04:06;97751.91;;;5.86;77.10
49611;BME280;35515;48.766;9.176;2024-03-08T12:06:38;97753.75;;;5.85;77.26
49611;BME280;35515;48.766;9.176;2024-03-08T12:09:08;97760.56;;;5.81;77.41
49611;BME280;35515;48.766;9.176;2024-03-08T12:11:37;97753.72;;;6.00;77.00
49611;BME280;35515;48.766;9.176;2024-03-08T12:14:03;97746.31;;;5.88;76.88
49611;BME280;35515;48.766;9.176;2024-03-08T12:16:31;97735.47;;;5.96;76.49
49611;BME280;35515;48.766;9.176;2024-03-08T12:18:59;97738.03;;;6.04;76.34
49611;BME280;35515;48.766;9.176;2024-03-08T12:21:31;97710.16;;;5.90;76.77
49611;BME280;35515;48.766;9.176;2024-03-08T12:24:05;97720.22;;;6.03;76.14
49611;BME280;35515;48.766;9.176;2024-03-08T12:26:35;97721.25;;;6.02;76.02
49611;BME280;35515;48.766;9.176;2024-03-08T12:29:20;97718.56;;;6.02;75.98
49611;BME280;35515;48.766;9.176;2024-03-08T12:31:48;97714.13;;;6.16;75.04
49611;BME280;35515;48.766;9.176;2024-03-08T12:34:16;97712.91;;;6.18;74.74
49611;BME280;35515;48.766;9.176;2024-03-08T12:36:46;97708.09;;;6.14;75.48
49611;BME280;35515;48.766;9.176;2024-03-08T12:39:16;97704.72;;;6.33;74.76
49611;BME280;35515;48.766;9.176;2024-03-08T12:41:43;97698.03;;;6.23;75.19
49611;BME280;35515;48.766;9.176;2024-03-08T12:44:10;97691.91;;;6.42;74.93
49611;BME280;35515;48.766;9.176;2024-03-08T12:46:38;97687.38;;;6.43;74.90
49611;BME280;35515;48.766;9.176;2024-03-08T12:49:07;97690.66;;;6.38;75.03
49611;BME280;35515;48.766;9.176;2024-03-08T12:51:34;97682.91;;;6.57;72.87
49611;BME280;35515;48.766;9.176;2024-03-08T12:54:01;97673.38;;;6.61;73.91
49611;BME280;35515;48.766;9.176;2024-03-08T12:56:31;97677.06;;;6.53;74.28
49611;BME280;35515;48.766;9.176;2024-03-08T12:58:59;97673.44;;;6.74;73.89
49611;BME280;35515;48.766;9.176;2024-03-08T13:01:26;97661.03;;;6.73;73.57
49611;BME280;35515;48.766;9.176;2024-03-08T13:03:54;97661.09;;;6.86;72.66
49611;BME280;35515;48.766;9.176;2024-03-08T13:06:22;97651.06;;;6.67;73.79
49611;BME280;35515;48.766;9.176;2024-03-08T13:08:50;97643.84;;;6.74;73.79
49611;BME280;35515;48.766;9.176;2024-03-08T13:11:17;97634.56;;;6.90;73.23
49611;BME280;35515;48.766;9.176;2024-03-08T13:13:44;97643.06;;;6.94;73.01